createdAt,value
2023-05-18T00:00:54.366Z,1266.00
2023-05-18T00:01:53.172Z,1270.00
2023-05-18T00:02:54.241Z,1265.00
2023-05-18T00:03:54.392Z,1263.00
2023-05-18T00:04:53.324Z,1265.00
2023-05-18T00:05:54.142Z,1262.00
2023-05-18T00:06:54.134Z,1263.00
2023-05-18T00:07:54.129Z,1257.00
2023-05-18T00:08:53.104Z,1256.00
2023-05-18T00:09:53.177Z,1252.00
2023-05-18T00:10:53.089Z,1248.00
2023-05-18T00:11:54.096Z,1253.00
2023-05-18T00:12:54.087Z,1256.00
2023-05-18T00:13:54.074Z,1249.00
2023-05-18T00:14:53.054Z,1252.00
2023-05-18T00:15:54.086Z,1251.00
2023-05-18T00:16:54.062Z,1260.00
2023-05-18T00:17:53.093Z,1250.00
2023-05-18T00:18:54.085Z,1245.00
2023-05-18T00:19:54.051Z,1245.00
2023-05-18T00:20:53.034Z,1244.00
2023-05-18T00:21:54.014Z,1241.00
2023-05-18T00:22:54.022Z,1242.00
2023-05-18T00:23:54.013Z,1238.00
2023-05-18T00:24:53.985Z,1237.00
2023-05-18T00:25:54.005Z,1233.00
2023-05-18T00:26:52.994Z,1229.00
2023-05-18T00:27:53.997Z,1221.00
2023-05-18T00:28:53.973Z,1230.00
2023-05-18T00:29:52.956Z,1229.00
2023-05-18T00:30:53.968Z,1225.00
2023-05-18T00:31:53.964Z,1230.00
2023-05-18T00:32:53.019Z,1225.00
2023-05-18T00:33:52.973Z,1223.00
2023-05-18T00:34:54.087Z,1224.00
2023-05-18T00:35:52.989Z,1214.00
2023-05-18T00:36:53.013Z,1213.00
2023-05-18T00:37:53.026Z,1219.00
2023-05-18T00:38:54.042Z,1211.00
2023-05-18T00:39:53.055Z,1213.00
2023-05-18T00:40:53.062Z,1218.00
2023-05-18T00:41:54.073Z,1204.00
2023-05-18T00:42:54.077Z,1220.00
2023-05-18T00:43:53.086Z,1213.00
2023-05-18T00:44:54.088Z,1206.00
2023-05-18T00:45:53.127Z,1204.00
2023-05-18T00:46:54.128Z,1205.00
2023-05-18T00:47:53.178Z,1201.00
2023-05-18T00:48:54.157Z,1201.00
2023-05-18T00:49:54.146Z,1195.00
2023-05-18T00:50:54.216Z,1203.00
2023-05-18T00:51:54.195Z,1200.00
2023-05-18T00:52:53.209Z,1198.00
2023-05-18T00:53:54.210Z,1197.00
2023-05-18T00:54:54.234Z,1195.00
2023-05-18T00:55:54.255Z,1196.00
2023-05-18T00:56:54.276Z,1190.00
2023-05-18T00:57:54.269Z,1186.00
2023-05-18T00:58:54.274Z,1192.00
2023-05-18T00:59:53.305Z,1191.00
2023-05-18T01:00:54.321Z,1182.00
2023-05-18T01:01:53.389Z,1185.00
2023-05-18T01:02:54.460Z,1184.00
2023-05-18T01:03:53.335Z,1185.00
2023-05-18T01:04:54.356Z,1186.00
2023-05-18T01:05:54.356Z,1179.00
2023-05-18T01:06:54.827Z,1182.00
2023-05-18T01:07:53.415Z,1176.00
2023-05-18T01:08:54.413Z,1181.00
2023-05-18T01:09:54.446Z,1173.00
2023-05-18T01:10:54.487Z,1167.00
2023-05-18T01:11:54.477Z,1169.00
2023-05-18T01:12:53.486Z,1165.00
2023-05-18T01:13:54.509Z,1169.00
2023-05-18T01:14:54.519Z,1169.00
2023-05-18T01:15:53.542Z,1170.00
2023-05-18T01:16:53.634Z,1168.00
2023-05-18T01:17:53.577Z,1163.00
2023-05-18T01:18:53.636Z,1157.00
2023-05-18T01:19:53.623Z,1163.00
2023-05-18T01:20:53.630Z,1159.00
2023-05-18T01:21:54.644Z,1155.00
2023-05-18T01:22:53.684Z,1162.00
2023-05-18T01:23:54.676Z,1156.00
2023-05-18T01:24:53.681Z,1152.00
2023-05-18T01:25:53.693Z,1160.00
2023-05-18T01:26:54.704Z,1148.00
2023-05-18T01:27:53.716Z,1146.00
2023-05-18T01:28:53.724Z,1150.00
2023-05-18T01:29:54.740Z,1147.00
2023-05-18T01:30:54.761Z,1153.00
2023-05-18T01:31:54.775Z,1151.00
2023-05-18T01:32:54.878Z,1145.00
2023-05-18T01:33:53.807Z,1149.00
2023-05-18T01:34:54.816Z,1141.00
2023-05-18T01:35:54.831Z,1141.00
2023-05-18T01:36:54.856Z,1129.00
2023-05-18T01:37:54.894Z,1135.00
2023-05-18T01:38:53.905Z,1130.00
2023-05-18T01:39:54.905Z,1136.00
2023-05-18T01:40:53.945Z,1134.00
2023-05-18T01:41:54.942Z,1133.00
2023-05-18T01:42:53.960Z,1138.00
2023-05-18T01:43:54.003Z,1128.00
2023-05-18T01:44:54.012Z,1120.00
2023-05-18T01:45:55.137Z,1122.00
2023-05-18T01:46:54.127Z,1121.00
2023-05-18T01:47:55.071Z,1124.00
2023-05-18T01:48:54.064Z,1123.00
2023-05-18T01:49:55.090Z,1124.00
2023-05-18T01:50:54.125Z,1124.00
2023-05-18T01:51:54.129Z,1115.00
2023-05-18T01:52:54.148Z,1116.00
2023-05-18T01:53:54.727Z,1112.00
2023-05-18T01:54:55.221Z,1119.00
2023-05-18T01:55:55.203Z,1112.00
2023-05-18T01:56:55.251Z,1113.00
2023-05-18T01:57:55.339Z,1118.00
2023-05-18T01:58:55.242Z,1107.00
2023-05-18T01:59:54.247Z,1108.00
2023-05-18T02:00:55.266Z,1106.00
2023-05-18T02:01:59.363Z,1106.00
2023-05-18T02:02:55.430Z,1107.00
2023-05-18T02:03:54.543Z,1107.00
2023-05-18T02:04:55.434Z,1106.00
2023-05-18T02:05:55.436Z,1112.00
2023-05-18T02:06:54.462Z,1108.00
2023-05-18T02:07:54.472Z,1098.00
2023-05-18T02:08:55.487Z,1096.00
2023-05-18T02:09:55.511Z,1088.00
2023-05-18T02:10:55.607Z,1099.00
2023-05-18T02:11:55.572Z,1091.00
2023-05-18T02:12:55.571Z,1093.00
2023-05-18T02:13:55.581Z,1099.00
2023-05-18T02:14:54.615Z,1084.00
2023-05-18T02:15:54.658Z,1092.00
2023-05-18T02:16:54.638Z,1090.00
2023-05-18T02:17:55.694Z,1085.00
2023-05-18T02:18:54.758Z,1086.00
2023-05-18T02:19:54.717Z,1080.00
2023-05-18T02:20:55.749Z,1084.00
2023-05-18T02:21:55.753Z,1083.00
2023-05-18T02:22:55.770Z,1087.00
2023-05-18T02:23:54.801Z,1083.00
2023-05-18T02:24:54.823Z,1081.00
2023-05-18T02:25:55.829Z,1081.00
2023-05-18T02:26:54.930Z,1080.00
2023-05-18T02:27:55.875Z,1082.00
2023-05-18T02:28:55.893Z,1076.00
2023-05-18T02:29:54.927Z,1072.00
2023-05-18T02:30:55.936Z,1072.00
2023-05-18T02:31:56.011Z,1076.00
2023-05-18T02:32:56.024Z,1068.00
2023-05-18T02:33:55.985Z,1059.00
2023-05-18T02:34:56.006Z,1077.00
2023-05-18T02:35:56.031Z,1069.00
2023-05-18T02:36:55.090Z,1058.00
2023-05-18T02:37:56.076Z,1060.00
2023-05-18T02:38:55.088Z,1057.00
2023-05-18T02:39:56.106Z,1052.00
2023-05-18T02:40:55.119Z,1053.00
2023-05-18T02:41:56.150Z,1053.00
2023-05-18T02:42:55.183Z,1056.00
2023-05-18T02:43:56.189Z,1058.00
2023-05-18T02:44:56.196Z,1054.00
2023-05-18T02:45:55.229Z,1050.00
2023-05-18T02:46:56.245Z,1054.00
2023-05-18T02:47:56.330Z,1051.00
2023-05-18T02:48:55.276Z,1046.00
2023-05-18T02:49:56.302Z,1049.00
2023-05-18T02:50:56.301Z,1052.00
2023-05-18T02:51:55.345Z,1051.00
2023-05-18T02:52:56.372Z,1049.00
2023-05-18T02:53:55.373Z,1046.00
2023-05-18T02:54:56.401Z,1041.00
2023-05-18T02:55:56.418Z,1039.00
2023-05-18T02:56:56.445Z,1052.00
2023-05-18T02:57:56.462Z,1041.00
2023-05-18T02:58:56.586Z,1039.00
2023-05-18T02:59:56.487Z,1036.00
2023-05-18T03:00:55.643Z,1038.00
2023-05-18T03:01:56.569Z,1035.00
2023-05-18T03:02:55.707Z,1033.00
2023-05-18T03:03:56.594Z,1035.00
2023-05-18T03:04:55.599Z,1035.00
2023-05-18T03:05:55.647Z,1031.00
2023-05-18T03:06:56.678Z,1031.00
2023-05-18T03:07:56.692Z,1020.00
2023-05-18T03:08:55.702Z,1031.00
2023-05-18T03:09:55.743Z,1029.00
2023-05-18T03:10:55.760Z,1026.00
2023-05-18T03:11:55.788Z,1027.00
2023-05-18T03:12:56.029Z,1023.00
2023-05-18T03:13:55.828Z,1027.00
2023-05-18T03:14:56.866Z,1020.00
2023-05-18T03:15:56.887Z,1023.00
2023-05-18T03:16:56.934Z,1020.00
2023-05-18T03:17:56.983Z,1014.00
2023-05-18T03:18:55.939Z,1018.00
2023-05-18T03:19:55.951Z,1014.00
2023-05-18T03:20:56.959Z,1021.00
2023-05-18T03:21:55.982Z,1019.00
2023-05-18T03:22:56.004Z,1014.00
2023-05-18T03:23:57.024Z,1005.00
2023-05-18T03:24:56.033Z,1021.00
2023-05-18T03:25:57.067Z,1009.00
2023-05-18T03:26:56.075Z,1018.00
2023-05-18T03:27:56.112Z,1012.00
2023-05-18T03:28:56.126Z,1002.00
2023-05-18T03:29:56.139Z,995.00
2023-05-18T03:30:57.237Z,1007.00
2023-05-18T03:31:56.207Z,1002.00
2023-05-18T03:32:57.318Z,1004.00
2023-05-18T03:33:57.223Z,996.00
2023-05-18T03:34:56.265Z,994.00
2023-05-18T03:35:57.271Z,998.00
2023-05-18T03:36:57.292Z,996.00
2023-05-18T03:37:56.353Z,996.00
2023-05-18T03:38:56.328Z,996.00
2023-05-18T03:39:57.363Z,999.00
2023-05-18T03:40:57.384Z,992.00
2023-05-18T03:41:57.394Z,992.00
2023-05-18T03:42:57.432Z,995.00
2023-05-18T03:43:57.453Z,995.00
2023-05-18T03:44:57.471Z,987.00
2023-05-18T03:45:56.526Z,989.00
2023-05-18T03:46:56.567Z,984.00
2023-05-18T03:47:56.582Z,983.00
2023-05-18T03:48:56.576Z,978.00
2023-05-18T03:49:56.649Z,973.00
2023-05-18T03:50:56.664Z,983.00
2023-05-18T03:51:56.674Z,984.00
2023-05-18T03:52:57.712Z,971.00
2023-05-18T03:53:56.724Z,981.00
2023-05-18T03:54:56.766Z,973.00
2023-05-18T03:55:56.780Z,974.00
2023-05-18T03:56:56.818Z,969.00
2023-05-18T03:57:56.847Z,977.00
2023-05-18T03:58:56.873Z,965.00
2023-05-18T03:59:57.893Z,968.00
2023-05-18T04:00:57.934Z,969.00
2023-05-18T04:01:57.979Z,964.00
2023-05-18T04:02:58.059Z,969.00
2023-05-18T04:03:58.123Z,960.00
2023-05-18T04:04:58.024Z,958.00
2023-05-18T04:05:57.034Z,949.00
2023-05-18T04:06:57.050Z,953.00
2023-05-18T04:07:58.092Z,959.00
2023-05-18T04:08:57.109Z,956.00
2023-05-18T04:09:58.160Z,950.00
2023-05-18T04:10:57.190Z,952.00
2023-05-18T04:11:58.216Z,948.00
2023-05-18T04:12:58.204Z,952.00
2023-05-18T04:13:58.228Z,940.00
2023-05-18T04:14:58.279Z,949.00
2023-05-18T04:15:57.306Z,942.00
2023-05-18T04:16:58.349Z,937.00
2023-05-18T04:17:58.357Z,935.00
2023-05-18T04:18:58.439Z,940.00
2023-05-18T04:19:57.391Z,934.00
2023-05-18T04:20:57.430Z,931.00
2023-05-18T04:21:57.434Z,928.00
2023-05-18T04:22:57.471Z,923.00
2023-05-18T04:23:58.499Z,925.00
2023-05-18T04:24:57.582Z,926.00
2023-05-18T04:25:58.568Z,925.00
2023-05-18T04:26:57.577Z,918.00
2023-05-18T04:27:58.645Z,915.00
2023-05-18T04:28:57.659Z,912.00
2023-05-18T04:29:58.672Z,919.00
2023-05-18T04:30:58.710Z,912.00
2023-05-18T04:31:58.751Z,923.00
2023-05-18T04:32:58.916Z,919.00
2023-05-18T04:33:57.778Z,906.00
2023-05-18T04:34:58.837Z,911.00
2023-05-18T04:35:57.838Z,903.00
2023-05-18T04:36:58.867Z,898.00
2023-05-18T04:37:57.907Z,904.00
2023-05-18T04:38:58.950Z,900.00
2023-05-18T04:39:58.975Z,905.00
2023-05-18T04:40:58.999Z,906.00
2023-05-18T04:41:59.015Z,905.00
2023-05-18T04:42:59.059Z,902.00
2023-05-18T04:43:59.076Z,899.00
2023-05-18T04:44:59.095Z,890.00
2023-05-18T04:45:58.185Z,895.00
2023-05-18T04:46:59.151Z,887.00
2023-05-18T04:47:58.197Z,894.00
2023-05-18T04:48:58.223Z,892.00
2023-05-18T04:49:59.248Z,883.00
2023-05-18T04:50:59.304Z,886.00
2023-05-18T04:51:59.292Z,891.00
2023-05-18T04:52:59.357Z,879.00
2023-05-18T04:53:58.365Z,883.00
2023-05-18T04:54:58.382Z,882.00
2023-05-18T04:55:58.419Z,885.00
2023-05-18T04:56:58.462Z,875.00
2023-05-18T04:57:59.505Z,873.00
2023-05-18T04:58:59.538Z,882.00
2023-05-18T04:59:59.704Z,871.00
2023-05-18T05:00:59.599Z,874.00
2023-05-18T05:01:59.623Z,866.00
2023-05-18T05:02:58.854Z,868.00
2023-05-18T05:03:59.937Z,868.00
2023-05-18T05:04:58.701Z,866.00
2023-05-18T05:05:59.776Z,869.00
2023-05-18T05:06:59.786Z,871.00
2023-05-18T05:07:59.836Z,866.00
2023-05-18T05:08:59.831Z,874.00
2023-05-18T05:09:59.856Z,863.00
2023-05-18T05:10:59.896Z,855.00
2023-05-18T05:11:58.898Z,867.00
2023-05-18T05:12:58.941Z,868.00
2023-05-18T05:13:58.988Z,859.00
2023-05-18T05:14:59.004Z,848.00
2023-05-18T05:16:00.159Z,857.00
2023-05-18T05:16:59.080Z,855.00
2023-05-18T05:18:00.185Z,843.00
2023-05-18T05:19:00.245Z,853.00
2023-05-18T05:20:00.187Z,851.00
2023-05-18T05:21:00.192Z,841.00
2023-05-18T05:22:00.200Z,843.00
2023-05-18T05:23:00.340Z,839.00
2023-05-18T05:24:00.287Z,843.00
2023-05-18T05:25:00.323Z,836.00
2023-05-18T05:25:59.326Z,843.00
2023-05-18T05:27:00.371Z,834.00
2023-05-18T05:27:59.467Z,843.00
2023-05-18T05:29:00.438Z,847.00
2023-05-18T05:30:00.460Z,828.00
2023-05-18T05:31:00.534Z,829.00
2023-05-18T05:32:00.555Z,832.00
2023-05-18T05:33:00.622Z,828.00
2023-05-18T05:34:00.585Z,833.00
2023-05-18T05:35:00.622Z,823.00
2023-05-18T05:35:59.635Z,820.00
2023-05-18T05:36:59.641Z,822.00
2023-05-18T05:37:59.698Z,819.00
2023-05-18T05:38:59.729Z,826.00
2023-05-18T05:40:00.731Z,820.00
2023-05-18T05:41:00.778Z,818.00
2023-05-18T05:42:00.817Z,816.00
2023-05-18T05:42:59.844Z,821.00
2023-05-18T05:44:00.863Z,806.00
2023-05-18T05:45:00.889Z,818.00
2023-05-18T05:46:00.002Z,818.00
2023-05-18T05:47:01.012Z,813.00
2023-05-18T05:48:00.099Z,807.00
2023-05-18T05:49:01.030Z,814.00
2023-05-18T05:50:01.102Z,812.00
2023-05-18T05:51:00.144Z,812.00
2023-05-18T05:52:00.157Z,812.00
2023-05-18T05:53:00.198Z,804.00
2023-05-18T05:54:00.197Z,807.00
2023-05-18T05:55:01.234Z,806.00
2023-05-18T05:56:01.213Z,797.00
2023-05-18T05:57:00.248Z,807.00
2023-05-18T05:58:00.267Z,798.00
2023-05-18T05:59:00.316Z,797.00
2023-05-18T06:00:01.342Z,790.00
2023-05-18T06:01:01.353Z,800.00
2023-05-18T06:02:00.401Z,794.00
2023-05-18T06:03:01.436Z,782.00
2023-05-18T06:04:01.544Z,794.00
2023-05-18T06:05:01.526Z,784.00
2023-05-18T06:06:00.473Z,793.00
2023-05-18T06:07:01.507Z,784.00
2023-05-18T06:08:01.538Z,797.00
2023-05-18T06:09:00.568Z,781.00
2023-05-18T06:10:01.604Z,783.00
2023-05-18T06:11:00.638Z,776.00
2023-05-18T06:12:01.637Z,787.00
2023-05-18T06:13:01.720Z,775.00
2023-05-18T06:14:00.715Z,778.00
2023-05-18T06:15:00.740Z,773.00
2023-05-18T06:16:01.767Z,770.00
2023-05-18T06:17:01.865Z,773.00
2023-05-18T06:18:00.870Z,777.00
2023-05-18T06:19:01.855Z,772.00
2023-05-18T06:20:01.884Z,774.00
2023-05-18T06:21:00.919Z,773.00
2023-05-18T06:22:00.921Z,773.00
2023-05-18T06:23:01.956Z,772.00
2023-05-18T06:24:01.987Z,771.00
2023-05-18T06:25:02.037Z,768.00
2023-05-18T06:26:02.165Z,775.00
2023-05-18T06:27:01.066Z,770.00
2023-05-18T06:28:02.099Z,773.00
2023-05-18T06:29:02.129Z,765.00
2023-05-18T06:30:02.171Z,768.00
2023-05-18T06:31:02.206Z,767.00
2023-05-18T06:32:02.325Z,775.00
2023-05-18T06:33:01.370Z,758.00
2023-05-18T06:34:02.302Z,767.00
2023-05-18T06:35:02.334Z,774.00
2023-05-18T06:36:02.368Z,780.00
2023-05-18T06:37:01.400Z,772.00
2023-05-18T06:38:02.450Z,761.00
2023-05-18T06:39:02.458Z,767.00
2023-05-18T06:40:01.506Z,768.00
2023-05-18T06:41:02.508Z,761.00
2023-05-18T06:42:01.566Z,768.00
2023-05-18T06:43:02.576Z,769.00
2023-05-18T06:44:01.656Z,766.00
2023-05-18T06:45:02.651Z,775.00
2023-05-18T06:46:02.695Z,767.00
2023-05-18T06:47:02.710Z,758.00
2023-05-18T06:48:02.779Z,760.00
2023-05-18T06:49:02.743Z,755.00
2023-05-18T06:50:02.770Z,774.00
2023-05-18T06:51:02.801Z,763.00
2023-05-18T06:52:02.841Z,757.00
2023-05-18T06:53:01.865Z,765.00
2023-05-18T06:54:01.894Z,767.00
2023-05-18T06:55:02.896Z,761.00
2023-05-18T06:56:01.923Z,765.00
2023-05-18T06:57:01.958Z,767.00
2023-05-18T06:58:02.029Z,767.00
2023-05-18T06:59:02.987Z,756.00
2023-05-18T07:00:03.025Z,757.00
2023-05-18T07:01:02.100Z,762.00
2023-05-18T07:02:03.127Z,760.00
2023-05-18T07:03:03.182Z,762.00
2023-05-18T07:04:03.169Z,757.00
2023-05-18T07:05:03.145Z,751.00
2023-05-18T07:06:02.169Z,759.00
2023-05-18T07:07:02.178Z,757.00
2023-05-18T07:08:03.213Z,751.00
2023-05-18T07:09:03.221Z,753.00
2023-05-18T07:10:03.228Z,759.00
2023-05-18T07:11:03.242Z,738.00
2023-05-18T07:12:02.256Z,751.00
2023-05-18T07:13:02.294Z,757.00
2023-05-18T07:14:02.357Z,753.00
2023-05-18T07:15:03.321Z,746.00
2023-05-18T07:16:03.376Z,745.00
2023-05-18T07:17:03.323Z,752.00
2023-05-18T07:18:02.389Z,744.00
2023-05-18T07:19:02.438Z,743.00
2023-05-18T07:20:02.353Z,738.00
2023-05-18T07:21:03.380Z,742.00
2023-05-18T07:22:03.398Z,743.00
2023-05-18T07:23:03.389Z,742.00
2023-05-18T07:24:03.579Z,744.00
2023-05-18T07:25:03.395Z,736.00
2023-05-18T07:26:02.389Z,741.00
2023-05-18T07:27:02.406Z,736.00
2023-05-18T07:28:02.422Z,739.00
2023-05-18T07:29:02.417Z,733.00
2023-05-18T07:30:02.448Z,731.00
2023-05-18T07:31:03.470Z,736.00
2023-05-18T07:32:02.626Z,734.00
2023-05-18T07:33:03.563Z,733.00
2023-05-18T07:34:03.470Z,730.00
2023-05-18T07:35:03.459Z,739.00
2023-05-18T07:36:02.462Z,733.00
2023-05-18T07:37:03.460Z,733.00
2023-05-18T07:38:02.441Z,724.00
2023-05-18T07:39:03.456Z,733.00
2023-05-18T07:40:02.439Z,727.00
2023-05-18T07:41:02.438Z,726.00
2023-05-18T07:42:02.453Z,727.00
2023-05-18T07:43:02.469Z,717.00
2023-05-18T07:44:03.553Z,728.00
2023-05-18T07:45:02.691Z,727.00
2023-05-18T07:46:02.485Z,731.00
2023-05-18T07:47:02.840Z,717.00
2023-05-18T07:48:03.587Z,716.00
2023-05-18T07:49:03.793Z,720.00
2023-05-18T07:50:03.602Z,719.00
2023-05-18T07:51:03.486Z,719.00
2023-05-18T07:52:03.451Z,716.00
2023-05-18T07:53:03.557Z,721.00
2023-05-18T07:54:03.438Z,706.00
2023-05-18T07:55:03.423Z,718.00
2023-05-18T07:56:02.421Z,710.00
2023-05-18T07:57:03.493Z,708.00
2023-05-18T07:58:03.411Z,709.00
2023-05-18T07:59:02.426Z,712.00
2023-05-18T08:00:03.515Z,695.00
2023-05-18T08:01:03.478Z,707.00
2023-05-18T08:02:03.903Z,701.00
2023-05-18T08:03:02.625Z,706.00
2023-05-18T08:04:03.507Z,708.00
2023-05-18T08:05:03.435Z,700.00
2023-05-18T08:06:03.481Z,698.00
2023-05-18T08:07:03.592Z,698.00
2023-05-18T08:08:05.170Z,692.00
2023-05-18T08:09:03.533Z,693.00
2023-05-18T08:10:03.506Z,693.00
2023-05-18T08:11:02.519Z,691.00
2023-05-18T08:12:03.624Z,689.00
2023-05-18T08:13:02.471Z,692.00
2023-05-18T08:14:03.446Z,691.00
2023-05-18T08:15:03.339Z,686.00
2023-05-18T08:16:11.686Z,684.00
2023-05-18T08:17:03.458Z,685.00
2023-05-18T08:18:02.565Z,688.00
2023-05-18T08:19:03.362Z,688.00
2023-05-18T08:20:02.300Z,687.00
2023-05-18T08:21:02.375Z,688.00
2023-05-18T08:22:02.289Z,688.00
2023-05-18T08:23:02.278Z,678.00
2023-05-18T08:24:03.279Z,676.00
2023-05-18T08:25:03.289Z,680.00
2023-05-18T08:26:03.275Z,678.00
2023-05-18T08:27:02.277Z,678.00
2023-05-18T08:28:02.249Z,672.00
2023-05-18T08:29:02.357Z,677.00
2023-05-18T08:30:03.237Z,673.00
2023-05-18T08:31:03.229Z,676.00
2023-05-18T08:32:03.248Z,669.00
2023-05-18T08:33:02.262Z,669.00
2023-05-18T08:34:03.255Z,675.00
2023-05-18T08:35:02.288Z,668.00
2023-05-18T08:36:02.216Z,670.00
2023-05-18T08:37:02.296Z,666.00
2023-05-18T08:38:05.519Z,666.00
2023-05-18T08:39:02.460Z,666.00
2023-05-18T08:40:02.167Z,667.00
2023-05-18T08:41:03.162Z,666.00
2023-05-18T08:42:03.164Z,670.00
2023-05-18T08:43:02.149Z,664.00
2023-05-18T08:44:03.237Z,663.00
2023-05-18T08:45:03.135Z,664.00
2023-05-18T08:46:03.133Z,662.00
2023-05-18T08:47:02.111Z,664.00
2023-05-18T08:48:03.174Z,662.00
2023-05-18T08:49:02.323Z,661.00
2023-05-18T08:50:02.159Z,661.00
2023-05-18T08:51:03.104Z,659.00
2023-05-18T08:52:02.086Z,659.00
2023-05-18T08:53:02.084Z,662.00
2023-05-18T08:54:02.068Z,659.00
2023-05-18T08:55:02.066Z,658.00
2023-05-18T08:56:03.064Z,661.00
2023-05-18T08:57:02.048Z,658.00
2023-05-18T08:58:02.046Z,656.00
2023-05-18T08:59:03.027Z,658.00
2023-05-18T09:00:03.034Z,656.00
2023-05-18T09:01:03.034Z,659.00
2023-05-18T09:02:02.092Z,655.00
2023-05-18T09:03:03.071Z,657.00
2023-05-18T09:04:03.060Z,654.00
2023-05-18T09:05:03.050Z,655.00
2023-05-18T09:06:03.211Z,656.00
2023-05-18T09:07:03.017Z,655.00
2023-05-18T09:08:02.992Z,654.00
2023-05-18T09:09:03.138Z,652.00
2023-05-18T09:10:01.993Z,652.00
2023-05-18T09:11:03.071Z,651.00
2023-05-18T09:12:02.959Z,651.00
2023-05-18T09:13:01.992Z,653.00
2023-05-18T09:14:02.226Z,651.00
2023-05-18T09:15:02.068Z,652.00
2023-05-18T09:16:02.095Z,650.00
2023-05-18T09:17:01.904Z,652.00
2023-05-18T09:18:02.253Z,649.00
2023-05-18T09:19:02.178Z,649.00
2023-05-18T09:20:02.108Z,649.00
2023-05-18T09:21:02.050Z,648.00
2023-05-18T09:22:03.167Z,650.00
2023-05-18T09:23:02.147Z,649.00
2023-05-18T09:24:03.087Z,646.00
2023-05-18T09:25:03.044Z,647.00
2023-05-18T09:26:01.854Z,645.00
2023-05-18T09:27:01.903Z,642.00
2023-05-18T09:28:02.830Z,640.00
2023-05-18T09:29:02.944Z,644.00
2023-05-18T09:30:02.025Z,645.00
2023-05-18T09:31:02.061Z,640.00
2023-05-18T09:32:02.897Z,642.00
2023-05-18T09:33:02.125Z,642.00
2023-05-18T09:34:03.029Z,645.00
2023-05-18T09:35:01.854Z,640.00
2023-05-18T09:36:02.780Z,641.00
2023-05-18T09:37:01.893Z,639.00
2023-05-18T09:38:02.057Z,641.00
2023-05-18T09:39:02.749Z,637.00
2023-05-18T09:40:01.777Z,640.00
2023-05-18T09:41:01.988Z,639.00
2023-05-18T09:42:01.783Z,639.00
2023-05-18T09:43:01.853Z,643.00
2023-05-18T09:44:02.831Z,636.00
2023-05-18T09:45:01.858Z,635.00
2023-05-18T09:46:01.928Z,636.00
2023-05-18T09:47:02.918Z,635.00
2023-05-18T09:48:02.002Z,633.00
2023-05-18T09:49:01.811Z,636.00
2023-05-18T09:50:01.880Z,636.00
2023-05-18T09:51:01.896Z,635.00
2023-05-18T09:52:01.724Z,634.00
2023-05-18T09:53:02.792Z,631.00
2023-05-18T09:54:02.948Z,635.00
2023-05-18T09:55:02.767Z,633.00
2023-05-18T09:56:01.824Z,635.00
2023-05-18T09:57:10.839Z,631.00
2023-05-18T09:58:02.789Z,632.00
2023-05-18T09:59:02.617Z,634.00
2023-05-18T10:00:01.655Z,633.00
2023-05-18T10:01:01.671Z,633.00
2023-05-18T10:02:02.596Z,634.00
2023-05-18T10:03:02.683Z,630.00
2023-05-18T10:04:02.828Z,631.00
2023-05-18T10:05:02.825Z,631.00
2023-05-18T10:06:01.572Z,634.00
2023-05-18T10:07:01.545Z,631.00
2023-05-18T10:08:01.568Z,629.00
2023-05-18T10:09:01.557Z,629.00
2023-05-18T10:10:02.571Z,630.00
2023-05-18T10:11:02.559Z,627.00
2023-05-18T10:12:02.514Z,627.00
2023-05-18T10:13:02.658Z,630.00
2023-05-18T10:14:03.025Z,628.00
2023-05-18T10:15:02.606Z,628.00
2023-05-18T10:16:01.504Z,627.00
2023-05-18T10:18:01.495Z,629.00
2023-05-18T10:19:02.486Z,629.00
2023-05-18T10:20:01.614Z,628.00
2023-05-18T10:21:01.477Z,624.00
2023-05-18T10:22:02.432Z,625.00
2023-05-18T10:23:02.432Z,625.00
2023-05-18T10:24:01.550Z,620.00
2023-05-18T10:25:01.479Z,624.00
2023-05-18T10:26:01.552Z,622.00
2023-05-18T10:27:02.396Z,622.00
2023-05-18T10:28:01.389Z,622.00
2023-05-18T10:29:02.408Z,621.00
2023-05-18T10:30:01.391Z,620.00
2023-05-18T10:31:02.444Z,620.00
2023-05-18T10:32:04.430Z,618.00
2023-05-18T10:33:03.028Z,618.00
2023-05-18T10:34:01.382Z,618.00
2023-05-18T10:35:02.488Z,619.00
2023-05-18T10:36:02.366Z,620.00
2023-05-18T10:37:01.372Z,619.00
2023-05-18T10:38:01.373Z,622.00
2023-05-18T10:39:02.340Z,620.00
2023-05-18T10:40:02.335Z,621.00
2023-05-18T10:41:01.317Z,616.00
2023-05-18T10:42:01.354Z,617.00
2023-05-18T10:43:02.314Z,616.00
2023-05-18T10:44:01.525Z,617.00
2023-05-18T10:45:02.513Z,617.00
2023-05-18T10:46:01.564Z,614.00
2023-05-18T10:47:01.343Z,616.00
2023-05-18T10:48:02.346Z,613.00
2023-05-18T10:49:01.267Z,615.00
2023-05-18T10:50:01.274Z,613.00
2023-05-18T10:51:01.238Z,612.00
2023-05-18T10:52:01.232Z,611.00
2023-05-18T10:53:02.231Z,611.00
2023-05-18T10:54:01.336Z,610.00
2023-05-18T10:55:02.226Z,610.00
2023-05-18T10:56:02.241Z,612.00
2023-05-18T10:57:01.206Z,609.00
2023-05-18T10:58:02.237Z,609.00
2023-05-18T10:59:01.186Z,610.00
2023-05-18T11:00:01.192Z,608.00
2023-05-18T11:01:02.176Z,606.00
2023-05-18T11:02:01.216Z,610.00
2023-05-18T11:03:01.186Z,609.00
2023-05-18T11:04:01.221Z,608.00
2023-05-18T11:05:01.200Z,604.00
2023-05-18T11:06:02.328Z,607.00
2023-05-18T11:07:01.212Z,607.00
2023-05-18T11:08:03.275Z,606.00
2023-05-18T11:09:02.118Z,612.00
2023-05-18T11:10:02.147Z,608.00
2023-05-18T11:11:02.119Z,605.00
2023-05-18T11:12:01.108Z,605.00
2023-05-18T11:13:01.091Z,605.00
2023-05-18T11:14:02.134Z,605.00
2023-05-18T11:15:01.104Z,605.00
2023-05-18T11:16:01.134Z,605.00
2023-05-18T11:17:02.115Z,602.00
2023-05-18T11:18:02.264Z,603.00
2023-05-18T11:19:01.096Z,602.00
2023-05-18T11:20:01.044Z,603.00
2023-05-18T11:21:02.043Z,604.00
2023-05-18T11:22:01.019Z,602.00
2023-05-18T11:23:02.032Z,602.00
2023-05-18T11:24:02.012Z,602.00
2023-05-18T11:25:02.026Z,600.00
2023-05-18T11:26:02.005Z,600.00
2023-05-18T11:27:02.008Z,601.00
2023-05-18T11:28:02.037Z,602.00
2023-05-18T11:29:01.974Z,604.00
2023-05-18T11:30:14.904Z,601.00
2023-05-18T11:31:01.968Z,602.00
2023-05-18T11:32:02.528Z,603.00
2023-05-18T11:33:00.996Z,604.00
2023-05-18T11:34:01.941Z,606.00
2023-05-18T11:35:01.953Z,605.00
2023-05-18T11:36:00.919Z,605.00
2023-05-18T11:37:00.913Z,602.00
2023-05-18T11:38:01.910Z,605.00
2023-05-18T11:39:00.914Z,600.00
2023-05-18T11:40:04.560Z,602.00
2023-05-18T11:41:01.934Z,602.00
2023-05-18T11:42:01.893Z,603.00
2023-05-18T11:43:01.868Z,603.00
2023-05-18T11:44:00.867Z,603.00
2023-05-18T11:45:00.847Z,602.00
2023-05-18T11:46:01.947Z,601.00
2023-05-18T11:47:00.837Z,601.00
2023-05-18T11:48:02.037Z,600.00
2023-05-18T11:49:00.851Z,601.00
2023-05-18T11:50:01.827Z,598.00
2023-05-18T11:51:01.787Z,602.00
2023-05-18T11:52:01.813Z,598.00
2023-05-18T11:53:00.790Z,599.00
2023-05-18T11:54:01.780Z,598.00
2023-05-18T11:55:01.788Z,597.00
2023-05-18T11:56:01.775Z,596.00
2023-05-18T11:57:00.756Z,596.00
2023-05-18T11:58:01.738Z,597.00
2023-05-18T11:59:01.781Z,596.00
2023-05-18T12:00:00.731Z,592.00
2023-05-18T12:01:00.723Z,596.00
2023-05-18T12:02:00.757Z,595.00
2023-05-18T12:03:01.942Z,597.00
2023-05-18T12:04:00.785Z,600.00
2023-05-18T12:05:01.703Z,597.00
2023-05-18T12:06:01.709Z,595.00
2023-05-18T12:07:01.697Z,594.00
2023-05-18T12:08:01.688Z,593.00
2023-05-18T12:09:03.161Z,594.00
2023-05-18T12:10:01.671Z,600.00
2023-05-18T12:11:01.761Z,600.00
2023-05-18T12:12:00.672Z,601.00
2023-05-18T12:13:00.704Z,598.00
2023-05-18T12:14:01.631Z,596.00
2023-05-18T12:15:00.650Z,594.00
2023-05-18T12:16:00.633Z,596.00
2023-05-18T12:17:00.659Z,594.00
2023-05-18T12:18:00.672Z,593.00
2023-05-18T12:19:01.670Z,595.00
2023-05-18T12:20:00.602Z,596.00
2023-05-18T12:21:00.598Z,596.00
2023-05-18T12:22:00.575Z,596.00
2023-05-18T12:23:01.585Z,596.00